createdAt,value
2022-09-24T00:00:56.658Z,14.80
2022-09-24T00:01:56.791Z,15.60
2022-09-24T00:02:56.924Z,14.80
2022-09-24T00:03:56.940Z,20.29
2022-09-24T00:04:57.012Z,14.30
2022-09-24T00:05:57.092Z,16.10
2022-09-24T00:06:57.176Z,18.00
2022-09-24T00:07:57.265Z,16.10
2022-09-24T00:08:57.348Z,12.10
2022-09-24T00:09:57.439Z,16.50
2022-09-24T00:10:57.524Z,14.39
2022-09-24T00:11:57.606Z,15.60
2022-09-24T00:12:57.691Z,14.50
2022-09-24T00:13:57.782Z,16.00
2022-09-24T00:14:57.868Z,19.10
2022-09-24T00:15:58.015Z,16.29
2022-09-24T00:16:58.047Z,16.79
2022-09-24T00:17:58.134Z,15.60
2022-09-24T00:18:58.221Z,16.39
2022-09-24T00:19:58.335Z,15.60
2022-09-24T00:20:58.401Z,15.10
2022-09-24T00:21:58.490Z,16.10
2022-09-24T00:22:58.576Z,16.10
2022-09-24T00:23:58.661Z,15.50
2022-09-24T00:24:58.746Z,16.39
2022-09-24T00:25:58.832Z,16.00
2022-09-24T00:26:58.919Z,13.80
2022-09-24T00:27:59.000Z,15.80
2022-09-24T00:28:59.084Z,15.10
2022-09-24T00:29:59.170Z,14.60
2022-09-24T00:30:59.328Z,16.70
2022-09-24T00:31:59.341Z,14.80
2022-09-24T00:32:59.430Z,17.10
2022-09-24T00:33:59.516Z,15.50
2022-09-24T00:34:59.601Z,17.70
2022-09-24T00:35:59.714Z,14.30
2022-09-24T00:36:59.782Z,17.00
2022-09-24T00:37:59.865Z,17.39
2022-09-24T00:38:59.952Z,17.00
2022-09-24T00:40:00.037Z,17.70
2022-09-24T00:41:00.121Z,19.10
2022-09-24T00:42:00.206Z,15.10
2022-09-24T00:43:00.295Z,16.39
2022-09-24T00:44:00.380Z,14.10
2022-09-24T00:45:00.458Z,16.20
2022-09-24T00:46:00.536Z,16.79
2022-09-24T00:47:00.711Z,16.10
2022-09-24T00:48:00.704Z,13.39
2022-09-24T00:49:00.787Z,20.70
2022-09-24T00:50:00.873Z,17.10
2022-09-24T00:51:00.957Z,15.89
2022-09-24T00:52:01.070Z,20.10
2022-09-24T00:53:01.132Z,17.70
2022-09-24T00:54:01.261Z,17.20
2022-09-24T00:55:01.297Z,20.89
2022-09-24T00:56:01.376Z,14.50
2022-09-24T00:57:01.457Z,17.70
2022-09-24T00:58:01.540Z,16.70
2022-09-24T00:59:01.621Z,14.10
2022-09-24T01:00:01.700Z,16.60
2022-09-24T01:01:01.880Z,16.29
2022-09-24T01:02:01.927Z,17.50
2022-09-24T01:03:01.946Z,16.29
2022-09-24T01:04:02.014Z,21.70
2022-09-24T01:05:02.101Z,16.50
2022-09-24T01:06:02.181Z,15.19
2022-09-24T01:07:02.265Z,17.39
2022-09-24T01:08:02.372Z,14.50
2022-09-24T01:09:02.430Z,15.39
2022-09-24T01:10:02.515Z,18.89
2022-09-24T01:11:02.596Z,19.50
2022-09-24T01:12:02.680Z,18.39
2022-09-24T01:13:02.761Z,17.00
2022-09-24T01:14:02.847Z,17.89
2022-09-24T01:15:02.929Z,16.60
2022-09-24T01:16:03.091Z,16.10
2022-09-24T01:17:03.090Z,18.39
2022-09-24T01:18:03.178Z,18.29
2022-09-24T01:19:03.247Z,16.00
2022-09-24T01:20:03.329Z,19.20
2022-09-24T01:21:03.413Z,18.70
2022-09-24T01:22:03.492Z,19.20
2022-09-24T01:23:03.583Z,16.70
2022-09-24T01:24:03.738Z,16.89
2022-09-24T01:25:03.729Z,16.00
2022-09-24T01:26:03.818Z,16.20
2022-09-24T01:27:03.890Z,16.60
2022-09-24T01:28:03.983Z,16.10
2022-09-24T01:29:04.062Z,19.79
2022-09-24T01:30:04.141Z,19.89
2022-09-24T01:31:04.268Z,19.10
2022-09-24T01:32:04.301Z,22.10
2022-09-24T01:33:04.404Z,23.60
2022-09-24T01:34:04.529Z,21.10
2022-09-24T01:35:04.533Z,23.70
2022-09-24T01:36:04.617Z,25.20
2022-09-24T01:37:04.699Z,26.60
2022-09-24T01:38:04.785Z,26.70
2022-09-24T01:39:04.876Z,27.10
2022-09-24T01:40:05.120Z,29.29
2022-09-24T01:41:05.053Z,36.20
2022-09-24T01:42:05.142Z,39.90
2022-09-24T01:43:05.230Z,55.40
2022-09-24T01:44:05.319Z,80.00
2022-09-24T01:45:05.407Z,70.59
2022-09-24T01:46:05.604Z,74.80
2022-09-24T01:47:05.592Z,84.80
2022-09-24T01:48:05.684Z,86.80
2022-09-24T01:49:05.777Z,90.69
2022-09-24T01:50:05.943Z,101.30
2022-09-24T01:51:05.966Z,126.40
2022-09-24T01:52:06.059Z,133.00
2022-09-24T01:53:06.160Z,126.50
2022-09-24T01:54:06.261Z,129.60
2022-09-24T01:55:06.352Z,135.89
2022-09-24T01:56:06.471Z,151.10
2022-09-24T01:57:06.543Z,138.60
2022-09-24T01:58:06.642Z,135.30
2022-09-24T01:59:06.745Z,144.00
2022-09-24T02:00:06.867Z,141.69
2022-09-24T02:01:07.004Z,137.80
2022-09-24T02:02:07.113Z,145.30
2022-09-24T02:03:07.134Z,144.00
2022-09-24T02:04:07.289Z,149.89
2022-09-24T02:05:07.322Z,156.89
2022-09-24T02:06:07.417Z,179.30
2022-09-24T02:07:07.507Z,162.80
2022-09-24T02:08:07.597Z,168.89
2022-09-24T02:09:07.690Z,179.19
2022-09-24T02:10:07.782Z,185.19
2022-09-24T02:11:07.872Z,181.89
2022-09-24T02:12:07.992Z,180.60
2022-09-24T02:13:08.064Z,179.60
2022-09-24T02:14:08.165Z,192.39
2022-09-24T02:15:08.254Z,189.80
2022-09-24T02:16:08.415Z,195.10
2022-09-24T02:17:08.442Z,189.50
2022-09-24T02:18:08.540Z,209.80
2022-09-24T02:19:08.631Z,194.80
2022-09-24T02:20:08.725Z,215.30
2022-09-24T02:21:08.825Z,217.00
2022-09-24T02:22:08.927Z,223.00
2022-09-24T02:23:09.013Z,219.10
2022-09-24T02:24:09.165Z,225.30
2022-09-24T02:25:09.207Z,237.30
2022-09-24T02:26:09.307Z,222.50
2022-09-24T02:27:09.416Z,235.39
2022-09-24T02:28:09.538Z,241.30
2022-09-24T02:29:09.619Z,240.30
2022-09-24T02:30:09.718Z,221.10
2022-09-24T02:31:09.841Z,228.10
2022-09-24T02:32:09.929Z,233.19
2022-09-24T02:33:10.036Z,235.19
2022-09-24T02:34:10.136Z,218.39
2022-09-24T02:35:10.251Z,224.89
2022-09-24T02:36:10.336Z,240.50
2022-09-24T02:37:10.449Z,238.50
2022-09-24T02:38:10.528Z,238.50
2022-09-24T02:39:10.623Z,228.10
2022-09-24T02:40:10.797Z,239.50
2022-09-24T02:41:10.820Z,233.69
2022-09-24T02:42:10.914Z,242.89
2022-09-24T02:43:11.011Z,241.00
2022-09-24T02:44:11.246Z,253.69
2022-09-24T02:45:11.196Z,243.19
2022-09-24T02:46:11.363Z,251.69
2022-09-24T02:47:11.395Z,246.19
2022-09-24T02:48:11.488Z,253.50
2022-09-24T02:49:11.586Z,255.10
2022-09-24T02:50:11.686Z,263.39
2022-09-24T02:51:11.788Z,263.70
2022-09-24T02:52:11.884Z,272.79
2022-09-24T02:53:11.990Z,274.00
2022-09-24T02:54:12.089Z,273.70
2022-09-24T02:55:12.192Z,274.00
2022-09-24T02:56:12.290Z,272.20
2022-09-24T02:57:12.388Z,284.60
2022-09-24T02:58:12.487Z,271.29
2022-09-24T02:59:12.614Z,287.79
2022-09-24T03:00:12.689Z,288.10
2022-09-24T03:01:12.779Z,274.39
2022-09-24T03:02:13.010Z,297.00
2022-09-24T03:03:13.029Z,299.89
2022-09-24T03:04:13.066Z,294.50
2022-09-24T03:05:13.160Z,294.29
2022-09-24T03:06:13.254Z,281.39
2022-09-24T03:07:13.349Z,278.79
2022-09-24T03:08:13.446Z,294.29
2022-09-24T03:09:13.544Z,289.39
2022-09-24T03:10:13.641Z,279.10
2022-09-24T03:11:18.363Z,286.70
2022-09-24T03:12:13.839Z,281.00
2022-09-24T03:13:13.936Z,299.60
2022-09-24T03:14:14.038Z,307.20
2022-09-24T03:15:14.155Z,316.50
2022-09-24T03:16:14.302Z,355.00
2022-09-24T03:17:14.329Z,323.50
2022-09-24T03:18:14.425Z,358.10
2022-09-24T03:19:14.525Z,354.60
2022-09-24T03:20:14.622Z,332.39
2022-09-24T03:21:14.724Z,332.50
2022-09-24T03:22:14.814Z,356.60
2022-09-24T03:23:14.910Z,329.50
2022-09-24T03:24:15.003Z,356.39
2022-09-24T03:25:15.107Z,367.20
2022-09-24T03:26:15.206Z,371.39
2022-09-24T03:27:15.292Z,354.60
2022-09-24T03:28:15.388Z,356.29
2022-09-24T03:29:15.518Z,342.20
2022-09-24T03:30:15.590Z,403.79
2022-09-24T03:31:15.819Z,390.10
2022-09-24T03:32:15.783Z,385.39
2022-09-24T03:33:15.881Z,411.39
2022-09-24T03:34:15.973Z,374.89
2022-09-24T03:35:16.074Z,388.20
2022-09-24T03:36:16.187Z,386.20
2022-09-24T03:37:16.261Z,367.50
2022-09-24T03:38:16.356Z,402.60
2022-09-24T03:39:16.451Z,414.39
2022-09-24T03:40:16.619Z,423.29
2022-09-24T03:41:16.642Z,408.00
2022-09-24T03:42:16.742Z,396.20
2022-09-24T03:43:16.835Z,387.89
2022-09-24T03:44:16.928Z,422.50
2022-09-24T03:45:17.024Z,420.89
2022-09-24T03:46:17.292Z,389.60
2022-09-24T03:47:17.212Z,426.10
2022-09-24T03:48:17.299Z,445.79
2022-09-24T03:49:17.391Z,430.00
2022-09-24T03:50:17.484Z,427.20
2022-09-24T03:51:17.580Z,409.50
2022-09-24T03:52:17.672Z,429.10
2022-09-24T03:53:17.760Z,455.00
2022-09-24T03:54:17.849Z,441.89
2022-09-24T03:55:18.060Z,443.00
2022-09-24T03:56:18.032Z,422.10
2022-09-24T03:57:18.127Z,443.70
2022-09-24T03:58:18.227Z,430.60
2022-09-24T03:59:18.324Z,428.00
2022-09-24T04:00:18.417Z,421.50
2022-09-24T04:01:18.565Z,431.10
2022-09-24T04:02:18.630Z,454.50
2022-09-24T04:03:18.725Z,443.50
2022-09-24T04:04:18.794Z,449.10
2022-09-24T04:05:18.884Z,452.39
2022-09-24T04:06:24.826Z,436.60
2022-09-24T04:07:20.075Z,441.70
2022-09-24T04:08:19.147Z,438.50
2022-09-24T04:09:19.242Z,414.29
2022-09-24T04:10:19.360Z,450.89
2022-09-24T04:11:19.419Z,431.60
2022-09-24T04:12:19.513Z,446.50
2022-09-24T04:13:19.604Z,451.29
2022-09-24T04:14:19.695Z,439.60
2022-09-24T04:15:19.788Z,455.00
2022-09-24T04:16:19.940Z,443.89
2022-09-24T04:17:19.968Z,459.00
2022-09-24T04:18:20.168Z,448.60
2022-09-24T04:19:20.155Z,457.20
2022-09-24T04:20:20.246Z,485.50
2022-09-24T04:21:20.358Z,469.10
2022-09-24T04:22:20.426Z,476.20
2022-09-24T04:23:20.518Z,483.00
2022-09-24T04:24:20.616Z,465.39
2022-09-24T04:25:20.708Z,494.79
2022-09-24T04:26:20.804Z,489.50
2022-09-24T04:27:20.896Z,475.50
2022-09-24T04:28:20.990Z,501.29
2022-09-24T04:29:21.087Z,488.60
2022-09-24T04:30:21.183Z,479.89
2022-09-24T04:31:21.372Z,493.60
2022-09-24T04:32:21.369Z,499.39
2022-09-24T04:33:21.468Z,479.29
2022-09-24T04:34:21.592Z,493.89
2022-09-24T04:35:21.675Z,503.00
2022-09-24T04:36:21.756Z,505.00
2022-09-24T04:37:21.848Z,500.50
2022-09-24T04:38:21.947Z,504.10
2022-09-24T04:39:22.036Z,520.09
2022-09-24T04:40:22.182Z,510.50
2022-09-24T04:41:22.224Z,505.79
2022-09-24T04:42:22.316Z,504.50
2022-09-24T04:43:22.413Z,503.50
2022-09-24T04:44:22.522Z,502.10
2022-09-24T04:45:22.596Z,517.59
2022-09-24T04:46:22.744Z,508.50
2022-09-24T04:47:22.779Z,508.10
2022-09-24T04:48:22.870Z,511.29
2022-09-24T04:49:23.071Z,500.50
2022-09-24T04:50:23.057Z,534.70
2022-09-24T04:51:23.151Z,486.89
2022-09-24T04:52:23.239Z,501.29
2022-09-24T04:53:23.336Z,483.29
2022-09-24T04:54:23.430Z,491.89
2022-09-24T04:55:23.529Z,515.00
2022-09-24T04:56:23.611Z,508.29
2022-09-24T04:57:23.707Z,513.59
2022-09-24T04:58:23.795Z,507.60
2022-09-24T04:59:23.896Z,493.10
2022-09-24T05:00:23.996Z,528.09
2022-09-24T05:01:24.167Z,497.20
2022-09-24T05:02:24.402Z,507.39
2022-09-24T05:03:24.288Z,490.00
2022-09-24T05:04:24.395Z,518.90
2022-09-24T05:05:24.507Z,511.39
2022-09-24T05:06:24.576Z,513.70
2022-09-24T05:07:24.669Z,500.39
2022-09-24T05:08:24.793Z,512.20
2022-09-24T05:09:24.857Z,511.50
2022-09-24T05:10:24.961Z,493.60
2022-09-24T05:11:25.073Z,511.39
2022-09-24T05:12:25.147Z,532.40
2022-09-24T05:13:25.244Z,499.39
2022-09-24T05:14:25.342Z,514.40
2022-09-24T05:15:25.434Z,508.00
2022-09-24T05:16:25.569Z,533.09
2022-09-24T05:17:25.631Z,523.29
2022-09-24T05:18:25.725Z,526.20
2022-09-24T05:19:25.824Z,503.79
2022-09-24T05:20:25.926Z,521.09
2022-09-24T05:21:26.042Z,510.70
2022-09-24T05:22:26.115Z,499.29
2022-09-24T05:23:26.210Z,499.70
2022-09-24T05:24:26.303Z,506.39
2022-09-24T05:25:26.397Z,505.00
2022-09-24T05:26:26.492Z,493.79
2022-09-24T05:27:26.587Z,486.79
2022-09-24T05:28:26.683Z,478.70
2022-09-24T05:29:26.779Z,526.00
2022-09-24T05:30:26.872Z,508.39
2022-09-24T05:31:27.086Z,517.20
2022-09-24T05:32:27.058Z,529.40
2022-09-24T05:33:27.158Z,515.29
2022-09-24T05:34:27.250Z,527.70
2022-09-24T05:35:27.351Z,505.89
2022-09-24T05:36:27.444Z,529.00
2022-09-24T05:37:27.703Z,529.90
2022-09-24T05:38:27.646Z,505.10
2022-09-24T05:39:32.816Z,530.00
2022-09-24T05:40:28.955Z,554.29
2022-09-24T05:41:27.930Z,508.00
2022-09-24T05:42:28.026Z,543.40
2022-09-24T05:43:28.118Z,540.00
2022-09-24T05:44:28.215Z,536.29
2022-09-24T05:45:28.303Z,548.50
2022-09-24T05:46:28.496Z,534.00
2022-09-24T05:47:28.496Z,558.20
2022-09-24T05:48:28.593Z,526.59
2022-09-24T05:49:28.695Z,518.90
2022-09-24T05:50:28.789Z,526.09
2022-09-24T05:51:28.889Z,540.40
2022-09-24T05:52:28.989Z,507.79
2022-09-24T05:53:29.115Z,509.89
2022-09-24T05:54:29.190Z,491.39
2022-09-24T05:55:32.366Z,513.90
2022-09-24T05:56:29.391Z,509.20
2022-09-24T05:57:29.497Z,521.79
2022-09-24T05:58:29.594Z,519.40
2022-09-24T05:59:29.690Z,505.89
2022-09-24T06:00:29.788Z,507.50
2022-09-24T06:01:29.965Z,494.79
2022-09-24T06:02:30.008Z,501.10
2022-09-24T06:03:30.212Z,478.00
2022-09-24T06:04:30.174Z,514.79
2022-09-24T06:05:30.273Z,511.70
2022-09-24T06:06:30.373Z,506.00
2022-09-24T06:07:30.489Z,505.70
2022-09-24T06:08:30.563Z,512.59
2022-09-24T06:09:30.687Z,472.00
2022-09-24T06:10:30.755Z,466.60
2022-09-24T06:11:30.849Z,494.20
2022-09-24T06:12:30.942Z,483.60
2022-09-24T06:13:31.037Z,481.00
2022-09-24T06:14:31.131Z,477.79
2022-09-24T06:15:31.220Z,487.39
2022-09-24T06:16:31.389Z,482.70
2022-09-24T06:17:31.403Z,476.29
2022-09-24T06:18:31.493Z,496.89
2022-09-24T06:19:31.582Z,492.79
2022-09-24T06:20:31.668Z,483.60
2022-09-24T06:21:31.755Z,505.50
2022-09-24T06:22:31.847Z,488.39
2022-09-24T06:23:31.937Z,484.50
2022-09-24T06:24:32.030Z,502.89
2022-09-24T06:25:32.144Z,492.39
2022-09-24T06:26:32.203Z,502.00
2022-09-24T06:27:32.291Z,509.39
2022-09-24T06:28:32.392Z,483.60
2022-09-24T06:29:32.468Z,476.79
2022-09-24T06:30:32.554Z,488.89
2022-09-24T06:31:32.732Z,490.00
2022-09-24T06:32:32.727Z,506.70
2022-09-24T06:33:32.812Z,505.60
2022-09-24T06:34:32.894Z,492.50
2022-09-24T06:35:32.987Z,507.20
2022-09-24T06:36:33.063Z,473.50
2022-09-24T06:37:33.148Z,479.89
2022-09-24T06:38:33.229Z,484.50
2022-09-24T06:39:33.305Z,491.79
2022-09-24T06:40:36.897Z,507.70
2022-09-24T06:41:33.483Z,495.29
2022-09-24T06:42:33.536Z,490.60
2022-09-24T06:43:33.615Z,485.79
2022-09-24T06:44:33.696Z,485.50
2022-09-24T06:45:33.778Z,479.89
2022-09-24T06:46:33.932Z,480.39
2022-09-24T06:47:33.934Z,491.50
2022-09-24T06:48:34.016Z,453.00
2022-09-24T06:49:34.518Z,481.00
2022-09-24T06:50:34.162Z,483.29
2022-09-24T06:51:34.239Z,491.50
2022-09-24T06:52:34.315Z,477.79
2022-09-24T06:53:34.390Z,498.89
2022-09-24T06:54:34.466Z,505.20
2022-09-24T06:55:34.547Z,496.79
2022-09-24T06:56:34.630Z,485.29
2022-09-24T06:57:34.735Z,472.79
2022-09-24T06:58:34.781Z,465.60
2022-09-24T06:59:34.854Z,481.00
2022-09-24T07:00:34.996Z,470.79
2022-09-24T07:01:35.146Z,495.70
2022-09-24T07:02:35.160Z,482.00
2022-09-24T07:03:35.153Z,465.79
2022-09-24T07:04:35.218Z,486.10
2022-09-24T07:05:38.463Z,488.50
2022-09-24T07:06:35.357Z,483.29
2022-09-24T07:07:35.423Z,502.79
2022-09-24T07:08:35.498Z,520.00
2022-09-24T07:09:35.561Z,491.29
2022-09-24T07:10:35.631Z,481.89
2022-09-24T07:11:35.702Z,508.70
2022-09-24T07:12:35.774Z,506.20
2022-09-24T07:13:35.865Z,501.20
2022-09-24T07:14:35.914Z,488.00
2022-09-24T07:15:36.070Z,499.89
2022-09-24T07:16:36.156Z,487.60
2022-09-24T07:17:36.128Z,489.50
2022-09-24T07:18:36.202Z,489.60
2022-09-24T07:19:36.269Z,481.29
2022-09-24T07:20:36.338Z,515.50
2022-09-24T07:21:36.408Z,505.50
2022-09-24T07:22:36.476Z,517.50
2022-09-24T07:23:36.547Z,516.79
2022-09-24T07:24:36.616Z,495.89
2022-09-24T07:25:36.687Z,491.00
2022-09-24T07:26:36.754Z,463.89
2022-09-24T07:27:36.816Z,471.70
2022-09-24T07:28:36.885Z,467.70
2022-09-24T07:29:36.978Z,477.60
2022-09-24T07:30:37.037Z,466.10
2022-09-24T07:31:37.202Z,456.50
2022-09-24T07:32:37.146Z,505.60
2022-09-24T07:33:37.212Z,465.70
2022-09-24T07:34:37.275Z,485.29
2022-09-24T07:35:37.334Z,468.10
2022-09-24T07:36:37.398Z,461.70
2022-09-24T07:37:37.456Z,457.79
2022-09-24T07:38:37.509Z,455.39
2022-09-24T07:39:37.564Z,432.20
2022-09-24T07:40:37.678Z,425.89
2022-09-24T07:41:42.055Z,409.79
2022-09-24T07:42:37.734Z,411.10
2022-09-24T07:43:37.789Z,404.70
2022-09-24T07:44:37.849Z,420.00
2022-09-24T07:45:38.011Z,403.00
2022-09-24T07:46:37.995Z,400.79
2022-09-24T07:47:38.019Z,383.20
2022-09-24T07:48:38.077Z,386.10
2022-09-24T07:49:38.134Z,402.50
2022-09-24T07:50:38.194Z,393.29
2022-09-24T07:51:38.248Z,381.50
2022-09-24T07:52:38.304Z,373.20
2022-09-24T07:53:38.355Z,403.79
2022-09-24T07:54:38.407Z,389.20
2022-09-24T07:55:38.464Z,334.20
2022-09-24T07:56:38.515Z,363.20
2022-09-24T07:57:38.567Z,354.29
2022-09-24T07:58:38.617Z,362.00
2022-09-24T07:59:38.672Z,343.89
2022-09-24T08:00:38.720Z,328.50
2022-09-24T08:01:38.874Z,309.79
2022-09-24T08:02:38.821Z,321.20
2022-09-24T08:03:38.926Z,321.79
2022-09-24T08:04:38.927Z,300.50
2022-09-24T08:05:38.976Z,319.50
2022-09-24T08:06:43.658Z,320.29
2022-09-24T08:07:40.089Z,289.29
2022-09-24T08:08:39.124Z,300.20
2022-09-24T08:09:39.177Z,292.20
2022-09-24T08:10:39.225Z,304.39
2022-09-24T08:11:39.276Z,280.89
2022-09-24T08:12:39.323Z,290.79
2022-09-24T08:13:39.373Z,285.39
2022-09-24T08:14:39.426Z,297.29
2022-09-24T08:15:39.531Z,283.70
2022-09-24T08:16:39.522Z,293.10
2022-09-24T08:17:39.588Z,286.20
2022-09-24T08:18:39.607Z,268.20
2022-09-24T08:19:39.651Z,277.29
2022-09-24T08:20:39.695Z,301.89
2022-09-24T08:21:39.737Z,266.29
2022-09-24T08:22:39.778Z,266.79
2022-09-24T08:23:39.819Z,251.19
2022-09-24T08:24:39.860Z,266.10
2022-09-24T08:25:39.900Z,235.30
2022-09-24T08:26:39.938Z,226.30
2022-09-24T08:27:39.973Z,243.39
2022-09-24T08:28:40.011Z,254.60
2022-09-24T08:29:40.046Z,231.10
2022-09-24T08:30:40.079Z,219.80
2022-09-24T08:31:40.237Z,222.39
2022-09-24T08:32:40.141Z,200.69
2022-09-24T08:33:40.194Z,188.30
2022-09-24T08:34:40.206Z,188.50
2022-09-24T08:35:40.318Z,189.69
2022-09-24T08:36:42.967Z,202.30
2022-09-24T08:37:40.303Z,176.19
2022-09-24T08:38:40.341Z,176.60
2022-09-24T08:39:40.375Z,167.39
2022-09-24T08:40:40.471Z,190.10
2022-09-24T08:41:40.446Z,186.30
2022-09-24T08:42:40.481Z,176.19
2022-09-24T08:43:40.517Z,170.50
2022-09-24T08:44:40.549Z,161.60
2022-09-24T08:45:40.581Z,150.69
2022-09-24T08:46:40.736Z,151.80
2022-09-24T08:47:40.645Z,150.69
2022-09-24T08:48:40.678Z,132.50
2022-09-24T08:49:40.744Z,123.19
2022-09-24T08:50:40.738Z,114.40
2022-09-24T08:51:40.770Z,118.30
2022-09-24T08:52:40.804Z,120.19
2022-09-24T08:53:42.841Z,116.50
2022-09-24T08:54:40.866Z,119.80
2022-09-24T08:55:40.895Z,112.30
2022-09-24T08:56:40.922Z,109.30
2022-09-24T08:57:40.951Z,107.90
2022-09-24T08:58:44.449Z,94.40
2022-09-24T08:59:41.001Z,87.19
2022-09-24T09:00:41.034Z,78.50
2022-09-24T09:01:41.171Z,82.90
2022-09-24T09:02:41.275Z,81.69
2022-09-24T09:03:41.102Z,73.69
2022-09-24T09:04:41.119Z,78.09
2022-09-24T09:05:44.738Z,69.00
2022-09-24T09:06:42.168Z,66.59
2022-09-24T09:07:41.174Z,59.40
2022-09-24T09:09:05.857Z,60.00
2022-09-24T09:09:42.224Z,50.09
2022-09-24T09:10:41.226Z,55.09
2022-09-24T09:11:41.243Z,54.59
2022-09-24T09:12:41.256Z,55.09
2022-09-24T09:13:41.270Z,48.29
2022-09-24T09:14:42.409Z,49.20
2022-09-24T09:15:41.329Z,48.09
2022-09-24T09:16:41.307Z,46.00
2022-09-24T09:17:41.303Z,44.50
2022-09-24T09:18:41.312Z,43.90
2022-09-24T09:19:41.319Z,44.70
2022-09-24T09:20:41.327Z,42.70
2022-09-24T09:21:41.359Z,43.40
2022-09-24T09:22:41.341Z,43.20
2022-09-24T09:23:41.344Z,39.79
2022-09-24T09:24:41.357Z,39.70
2022-09-24T09:25:41.351Z,37.29
2022-09-24T09:26:41.356Z,37.29
2022-09-24T09:27:41.368Z,40.59
2022-09-24T09:28:41.368Z,40.90
2022-09-24T09:29:41.379Z,38.70
2022-09-24T09:30:41.376Z,45.79
2022-09-24T09:31:41.435Z,38.50
2022-09-24T09:32:41.382Z,36.79
2022-09-24T09:33:41.374Z,39.59
2022-09-24T09:34:41.369Z,39.59
2022-09-24T09:35:41.363Z,40.90
2022-09-24T09:36:41.361Z,39.79
2022-09-24T09:37:41.434Z,43.29
2022-09-24T09:38:41.354Z,39.09
2022-09-24T09:39:41.343Z,36.90
2022-09-24T09:40:41.417Z,40.59
2022-09-24T09:41:41.337Z,36.50
2022-09-24T09:42:41.335Z,36.70
2022-09-24T09:43:41.336Z,38.09
2022-09-24T09:44:41.329Z,34.20
2022-09-24T09:45:41.324Z,36.00
2022-09-24T09:46:41.374Z,30.39
2022-09-24T09:47:41.318Z,29.60
2022-09-24T09:48:41.307Z,29.20
2022-09-24T09:49:41.305Z,32.00
2022-09-24T09:50:41.302Z,30.79
2022-09-24T09:51:41.299Z,34.29
2022-09-24T09:52:41.297Z,31.29
2022-09-24T09:53:41.318Z,36.59
2022-09-24T09:54:41.294Z,32.90
2022-09-24T09:55:41.301Z,32.29
2022-09-24T09:56:41.297Z,31.20
2022-09-24T09:57:41.301Z,30.39
2022-09-24T09:58:41.301Z,28.29
2022-09-24T09:59:41.301Z,30.50
2022-09-24T10:00:41.298Z,30.39
2022-09-24T10:01:41.520Z,29.50
2022-09-24T10:02:41.430Z,31.29
2022-09-24T10:03:41.305Z,30.20
2022-09-24T10:04:41.277Z,27.00
2022-09-24T10:05:41.263Z,30.89
2022-09-24T10:06:41.257Z,29.70
2022-09-24T10:07:41.252Z,29.10
2022-09-24T10:08:41.242Z,28.79
2022-09-24T10:09:41.263Z,30.50
2022-09-24T10:10:41.226Z,31.39
2022-09-24T10:11:41.223Z,28.10
2022-09-24T10:12:41.214Z,30.20
2022-09-24T10:13:41.204Z,31.29
2022-09-24T10:14:41.196Z,29.70
2022-09-24T10:15:45.364Z,29.79
2022-09-24T10:16:41.235Z,29.20
2022-09-24T10:17:41.158Z,32.50
2022-09-24T10:18:41.143Z,32.00
2022-09-24T10:19:41.125Z,29.20
2022-09-24T10:20:41.111Z,31.79
2022-09-24T10:21:41.093Z,28.29
2022-09-24T10:22:41.079Z,27.00
2022-09-24T10:23:41.060Z,28.50
2022-09-24T10:24:41.594Z,24.60
2022-09-24T10:25:41.049Z,24.10
2022-09-24T10:26:44.988Z,28.89
2022-09-24T10:27:40.999Z,25.39
2022-09-24T10:28:40.979Z,23.00
2022-09-24T10:29:40.968Z,24.50
2022-09-24T10:30:40.950Z,25.79
2022-09-24T10:31:41.027Z,24.39
2022-09-24T10:32:40.920Z,22.60
2022-09-24T10:33:40.916Z,22.89
2022-09-24T10:34:40.913Z,22.29
2022-09-24T10:35:40.885Z,21.10
2022-09-24T10:36:40.873Z,19.39
2022-09-24T10:37:40.868Z,20.00
2022-09-24T10:38:40.868Z,21.00
2022-09-24T10:39:40.875Z,16.89
2022-09-24T10:40:40.889Z,19.00
2022-09-24T10:41:40.890Z,17.70
2022-09-24T10:42:40.845Z,15.19
2022-09-24T10:43:40.844Z,18.10
2022-09-24T10:44:40.846Z,15.39
2022-09-24T10:45:40.858Z,16.00
2022-09-24T10:46:40.937Z,13.10
2022-09-24T10:47:40.856Z,16.60
2022-09-24T10:48:40.871Z,14.60
2022-09-24T10:49:40.922Z,16.70
2022-09-24T10:50:40.913Z,17.89
2022-09-24T10:51:40.904Z,16.50
2022-09-24T10:52:40.903Z,14.30
2022-09-24T10:53:40.942Z,15.19
2022-09-24T10:54:40.927Z,14.39
2022-09-24T10:55:40.947Z,16.29
2022-09-24T10:56:46.033Z,18.29
2022-09-24T10:57:40.982Z,15.10
2022-09-24T10:58:40.991Z,15.69
2022-09-24T10:59:40.981Z,18.20
2022-09-24T11:00:41.006Z,17.39
2022-09-24T11:01:41.113Z,14.60
2022-09-24T11:02:41.058Z,16.10
2022-09-24T11:03:41.041Z,15.60
2022-09-24T11:04:41.053Z,16.89
2022-09-24T11:05:41.072Z,15.50
2022-09-24T11:06:41.091Z,16.70
2022-09-24T11:07:41.112Z,15.69
2022-09-24T11:08:41.135Z,15.30
2022-09-24T11:09:41.159Z,15.10
2022-09-24T11:10:42.623Z,17.79
2022-09-24T11:11:41.210Z,16.60
2022-09-24T11:12:41.235Z,15.80
2022-09-24T11:13:41.282Z,17.60
2022-09-24T11:14:41.286Z,16.39
2022-09-24T11:15:41.348Z,16.89
2022-09-24T11:16:41.338Z,15.19
2022-09-24T11:17:41.366Z,18.29
2022-09-24T11:18:41.396Z,14.69
2022-09-24T11:19:41.412Z,16.70
2022-09-24T11:20:41.434Z,16.10
2022-09-24T11:21:41.457Z,16.00
2022-09-24T11:22:41.478Z,15.00
2022-09-24T11:23:41.497Z,15.39
2022-09-24T11:24:41.518Z,16.50
2022-09-24T11:25:41.534Z,15.69
2022-09-24T11:26:41.551Z,17.10
2022-09-24T11:27:41.567Z,18.00
2022-09-24T11:28:41.583Z,19.20
2022-09-24T11:29:41.619Z,15.00
2022-09-24T11:30:41.617Z,16.70
2022-09-24T11:31:41.675Z,16.89
2022-09-24T11:32:41.627Z,17.79
2022-09-24T11:33:41.641Z,16.00
2022-09-24T11:34:41.642Z,15.80
2022-09-24T11:35:41.654Z,16.79
2022-09-24T11:36:41.666Z,17.20
2022-09-24T11:37:41.673Z,15.89
2022-09-24T11:38:41.683Z,15.69
2022-09-24T11:39:41.693Z,15.39
2022-09-24T11:40:41.823Z,15.80
2022-09-24T11:41:41.710Z,17.20
2022-09-24T11:42:41.721Z,16.29
2022-09-24T11:43:41.732Z,19.00
2022-09-24T11:44:41.745Z,15.50
2022-09-24T11:45:41.780Z,14.19
2022-09-24T11:46:41.868Z,14.69
2022-09-24T11:47:41.785Z,15.60
2022-09-24T11:48:41.798Z,14.10
2022-09-24T11:49:41.812Z,13.80
2022-09-24T11:50:46.707Z,13.50
2022-09-24T11:51:41.846Z,13.69
2022-09-24T11:52:41.864Z,16.10
2022-09-24T11:53:41.888Z,14.69
2022-09-24T11:54:41.909Z,15.30
2022-09-24T11:55:41.928Z,16.00
2022-09-24T11:56:41.942Z,13.60
2022-09-24T11:57:41.961Z,18.10
2022-09-24T11:58:41.979Z,14.50
2022-09-24T11:59:41.997Z,15.19
2022-09-24T12:00:42.012Z,15.69
2022-09-24T12:01:42.129Z,15.50
2022-09-24T12:02:42.085Z,14.10
2022-09-24T12:03:42.071Z,15.80
2022-09-24T12:04:42.093Z,15.69
2022-09-24T12:05:42.116Z,14.89
2022-09-24T12:06:42.151Z,15.80
2022-09-24T12:07:42.168Z,16.29
2022-09-24T12:08:42.193Z,16.20
2022-09-24T12:09:42.219Z,14.80
2022-09-24T12:10:42.245Z,13.50
2022-09-24T12:11:42.270Z,16.10
2022-09-24T12:12:42.292Z,17.50
2022-09-24T12:13:42.320Z,16.10
2022-09-24T12:14:42.347Z,15.00
2022-09-24T12:15:42.431Z,15.89
2022-09-24T12:16:42.399Z,15.30
2022-09-24T12:17:44.410Z,15.30
2022-09-24T12:18:42.454Z,15.89
2022-09-24T12:19:42.482Z,16.20
2022-09-24T12:20:42.512Z,17.79
2022-09-24T12:21:42.541Z,13.80
2022-09-24T12:22:42.574Z,17.10
2022-09-24T12:23:42.606Z,18.89
2022-09-24T12:24:42.635Z,15.00
2022-09-24T12:25:42.662Z,13.50
2022-09-24T12:26:42.693Z,17.50
2022-09-24T12:27:42.730Z,17.00
2022-09-24T12:28:42.756Z,16.70
2022-09-24T12:29:42.782Z,17.89
2022-09-24T12:30:42.813Z,17.00
2022-09-24T12:31:42.912Z,16.00
2022-09-24T12:32:42.873Z,16.20
2022-09-24T12:33:42.937Z,15.30
2022-09-24T12:34:42.933Z,14.50
2022-09-24T12:35:42.962Z,16.39
2022-09-24T12:36:42.990Z,17.29
2022-09-24T12:37:43.017Z,14.69
2022-09-24T12:38:43.039Z,14.39
2022-09-24T12:39:43.063Z,14.00